createdAt,value
2018-09-11T00:01:49.120Z,6.13
2018-09-11T00:04:21.670Z,6.20
2018-09-11T00:06:52.029Z,6.50
2018-09-11T00:09:22.111Z,5.97
2018-09-11T00:11:52.250Z,6.13
2018-09-11T00:14:23.617Z,6.00
2018-09-11T00:16:53.976Z,6.00
2018-09-11T00:19:25.020Z,6.13
2018-09-11T00:21:58.190Z,6.00
2018-09-11T00:24:30.979Z,5.80
2018-09-11T00:27:06.943Z,6.13
2018-09-11T00:29:37.150Z,6.20
2018-09-11T00:32:08.650Z,6.07
2018-09-11T00:34:39.983Z,6.00
2018-09-11T00:37:10.790Z,5.80
2018-09-11T00:39:42.680Z,5.83
2018-09-11T00:42:14.830Z,6.13
2018-09-11T00:44:45.229Z,5.93
2018-09-11T00:47:17.429Z,6.13
2018-09-11T00:49:47.588Z,5.90
2018-09-11T00:52:18.239Z,5.57
2018-09-11T00:54:48.420Z,6.27
2018-09-11T00:57:22.092Z,6.00
2018-09-11T00:59:52.699Z,6.00
2018-09-11T01:02:24.440Z,5.87
2018-09-11T01:04:57.430Z,5.50
2018-09-11T01:07:27.680Z,6.20
2018-09-11T01:09:58.813Z,5.40
2018-09-11T01:12:31.948Z,5.90
2018-09-11T01:15:02.491Z,5.93
2018-09-11T01:17:33.639Z,5.90
2018-09-11T01:20:05.280Z,5.77
2018-09-11T01:22:37.270Z,5.93
2018-09-11T01:25:11.560Z,5.80
2018-09-11T01:27:43.208Z,5.53
2018-09-11T01:30:17.419Z,5.60
2018-09-11T01:32:49.500Z,5.77
2018-09-11T01:35:28.650Z,6.30
2018-09-11T01:37:58.859Z,5.83
2018-09-11T01:40:30.364Z,5.57
2018-09-11T01:43:09.442Z,5.67
2018-09-11T01:45:49.080Z,5.67
2018-09-11T01:48:20.642Z,6.00
2018-09-11T01:50:59.793Z,6.23
2018-09-11T01:53:31.473Z,5.73
2018-09-11T01:56:11.431Z,5.53
2018-09-11T01:58:42.995Z,5.40
2018-09-11T02:01:16.092Z,5.80
2018-09-11T02:03:46.332Z,5.73
2018-09-11T02:06:18.463Z,5.93
2018-09-11T02:08:48.612Z,5.87
2018-09-11T02:11:27.547Z,5.97
2018-09-11T02:13:58.746Z,5.80
2018-09-11T02:16:37.985Z,5.43
2018-09-11T02:19:09.494Z,5.83
2018-09-11T02:21:41.914Z,5.50
2018-09-11T02:24:11.945Z,5.60
2018-09-11T02:26:43.454Z,6.00
2018-09-11T02:29:17.774Z,5.17
2018-09-11T02:31:47.734Z,5.53
2018-09-11T02:34:17.926Z,5.53
2018-09-11T02:36:49.768Z,5.40
2018-09-11T02:39:30.016Z,5.67
2018-09-11T02:42:07.043Z,5.60
2018-09-11T02:44:39.063Z,5.47
2018-09-11T02:47:11.732Z,5.80
2018-09-11T02:49:43.422Z,5.33
2018-09-11T02:52:15.043Z,5.33
2018-09-11T02:54:55.122Z,5.60
2018-09-11T02:57:26.559Z,5.20
2018-09-11T03:00:05.605Z,6.07
2018-09-11T03:02:36.666Z,6.00
2018-09-11T03:05:06.947Z,5.60
2018-09-11T03:07:45.592Z,5.40
2018-09-11T03:10:17.682Z,5.97
2018-09-11T03:12:49.383Z,5.00
2018-09-11T03:15:28.674Z,5.00
2018-09-11T03:18:00.323Z,5.40
2018-09-11T03:20:38.948Z,5.70
2018-09-11T03:23:18.317Z,5.30
2018-09-11T03:25:57.565Z,5.23
2018-09-11T03:28:30.174Z,5.10
2018-09-11T03:31:01.963Z,5.20
2018-09-11T03:33:34.204Z,5.63
2018-09-11T03:36:06.084Z,5.37
2018-09-11T03:38:37.763Z,5.80
2018-09-11T03:41:09.484Z,5.73
2018-09-11T03:43:42.039Z,5.13
2018-09-11T06:45:19.151Z,5.20
2018-09-11T06:47:50.347Z,4.60
2018-09-11T06:50:21.478Z,4.67
2018-09-11T06:52:53.218Z,5.50
2018-09-11T06:55:24.720Z,5.17
2018-09-11T06:57:56.026Z,4.63
2018-09-11T07:00:26.029Z,5.50
2018-09-11T07:02:56.028Z,5.20
2018-09-11T07:05:25.703Z,5.30
2018-09-11T07:08:00.378Z,5.03
2018-09-11T07:10:31.578Z,4.77
2018-09-11T07:13:02.173Z,4.57
2018-09-11T07:15:32.288Z,4.03
2018-09-11T07:18:03.292Z,4.80
2018-09-11T07:20:33.280Z,4.67
2018-09-11T07:23:02.960Z,4.70
2018-09-11T07:25:33.109Z,4.47
2018-09-11T07:28:03.189Z,6.10
2018-09-11T07:30:33.279Z,4.73
2018-09-11T07:33:04.779Z,4.70
2018-09-11T07:35:43.748Z,5.27
2018-09-11T07:38:17.719Z,4.70
2018-09-11T07:40:49.531Z,4.60
2018-09-11T07:43:28.592Z,4.70
2018-09-11T07:45:59.036Z,4.60
2018-09-11T07:48:31.152Z,5.00
2018-09-11T07:51:04.508Z,4.57
2018-09-11T07:53:44.055Z,4.70
2018-09-11T07:56:23.036Z,4.73
2018-09-11T07:59:02.361Z,4.20
2018-09-11T08:01:41.856Z,4.57
2018-09-11T08:04:20.183Z,4.83
2018-09-11T08:06:59.482Z,4.93
2018-09-11T08:09:38.851Z,4.90
2018-09-11T08:12:17.882Z,4.23
2018-09-11T08:14:57.021Z,4.67
2018-09-11T08:17:35.830Z,4.70
2018-09-11T08:20:14.849Z,4.70
2018-09-11T08:22:53.748Z,4.67
2018-09-11T08:25:30.412Z,4.90
2018-09-11T08:28:09.575Z,4.97
2018-09-11T08:30:48.206Z,4.53
2018-09-11T08:33:26.492Z,4.63
2018-09-11T08:36:03.875Z,4.63
2018-09-11T08:38:40.606Z,4.47
2018-09-11T08:41:20.650Z,4.77
2018-09-11T08:43:59.433Z,4.70
2018-09-11T08:46:35.548Z,4.33
2018-09-11T08:49:14.862Z,4.80
2018-09-11T08:51:50.323Z,4.43
2018-09-11T08:54:24.674Z,4.20
2018-09-11T08:57:01.657Z,4.40
2018-09-11T08:59:40.718Z,4.30
2018-09-11T09:02:19.813Z,4.30
2018-09-11T09:04:57.089Z,4.63
2018-09-11T09:07:34.401Z,4.67
2018-09-11T09:10:09.738Z,4.43
2018-09-11T09:12:49.299Z,4.70
2018-09-11T09:15:28.213Z,4.83
2018-09-11T09:18:03.635Z,4.63
2018-09-11T09:20:42.588Z,4.70
2018-09-11T09:23:20.010Z,4.30
2018-09-11T09:25:58.109Z,4.30
2018-09-11T09:28:34.230Z,4.47
2018-09-11T09:31:13.504Z,4.40
2018-09-11T09:33:49.372Z,4.20
2018-09-11T09:36:29.160Z,4.77
2018-09-11T09:39:08.753Z,4.47
2018-09-11T09:41:46.606Z,4.50
2018-09-11T09:44:26.902Z,4.40
2018-09-11T09:47:06.421Z,3.83
2018-09-11T09:49:45.604Z,4.60
2018-09-11T09:52:19.594Z,4.30
2018-09-11T09:54:54.819Z,4.50
2018-09-11T09:57:34.357Z,4.73
2018-09-11T10:00:18.471Z,4.23
2018-09-11T10:02:55.732Z,4.43
2018-09-11T10:05:34.691Z,4.60
2018-09-11T10:08:13.966Z,4.90
2018-09-11T10:10:53.040Z,4.57
2018-09-11T10:13:32.039Z,4.60
2018-09-11T10:16:04.878Z,4.73
2018-09-11T10:18:41.028Z,4.70
2018-09-11T10:21:17.626Z,4.63
2018-09-11T10:23:56.867Z,4.33
2018-09-11T10:26:32.605Z,4.70
2018-09-11T10:29:09.775Z,4.77
2018-09-11T10:31:45.371Z,4.50
2018-09-11T10:34:21.085Z,4.23
2018-09-11T10:37:00.507Z,4.70
2018-09-11T10:39:39.688Z,4.80
2018-09-11T10:42:19.849Z,4.30
2018-09-11T10:44:58.821Z,5.43
2018-09-11T10:47:37.681Z,4.80
2018-09-11T10:50:11.538Z,4.43
2018-09-11T10:52:43.068Z,4.77
2018-09-11T10:55:20.925Z,4.70
2018-09-11T10:57:52.455Z,4.30
2018-09-11T11:00:27.509Z,4.80
2018-09-11T11:03:06.502Z,5.07
2018-09-11T11:05:45.701Z,4.73
2018-09-11T11:08:24.915Z,4.60
2018-09-11T11:11:03.917Z,5.03
2018-09-11T11:13:41.678Z,4.53
2018-09-11T11:16:20.680Z,4.80
2018-09-11T11:19:00.122Z,5.20
2018-09-11T11:21:38.490Z,4.57
2018-09-11T11:24:17.416Z,4.63
2018-09-11T11:26:56.585Z,4.50
2018-09-11T11:29:36.172Z,4.50
2018-09-11T11:32:15.658Z,4.83
2018-09-11T11:34:47.462Z,4.80
2018-09-11T11:37:23.923Z,4.90
2018-09-11T11:40:00.401Z,4.70
2018-09-11T11:42:39.501Z,5.07
2018-09-11T11:45:18.566Z,4.80
2018-09-11T11:47:57.765Z,4.87
2018-09-11T11:50:36.565Z,5.27
2018-09-11T11:53:12.579Z,4.87
2018-09-11T11:55:44.919Z,4.83
2018-09-11T11:58:20.067Z,4.60
2018-09-11T12:00:59.215Z,4.60
2018-09-11T12:03:38.207Z,4.47
2018-09-11T12:06:17.471Z,4.60
2018-09-11T12:08:55.247Z,5.10
2018-09-11T12:11:30.424Z,5.30
2018-09-11T12:14:08.463Z,4.60
2018-09-11T12:16:45.613Z,4.90
2018-09-11T12:19:23.501Z,4.87
2018-09-11T12:22:01.879Z,5.30
2018-09-11T12:24:40.823Z,5.30
2018-09-11T12:27:18.230Z,4.90
2018-09-11T12:29:58.248Z,4.70
2018-09-11T12:32:37.418Z,4.90
2018-09-11T12:35:13.864Z,4.90
2018-09-11T12:37:52.756Z,5.00
2018-09-11T12:40:29.694Z,4.90
2018-09-11T12:43:00.865Z,4.67
2018-09-11T12:45:39.958Z,5.00
2018-09-11T12:48:19.275Z,5.53
2018-09-11T12:50:56.625Z,5.23
2018-09-11T12:53:33.591Z,4.83
2018-09-11T12:56:12.531Z,4.83
2018-09-11T12:58:50.369Z,5.17
2018-09-11T13:01:29.452Z,5.67
2018-09-11T13:04:09.418Z,5.43
2018-09-11T13:06:48.870Z,4.90
2018-09-11T13:09:27.881Z,5.60
2018-09-11T13:12:06.659Z,5.40
2018-09-11T13:14:45.668Z,6.00
2018-09-11T13:17:24.743Z,5.50
2018-09-11T13:20:01.091Z,5.90
2018-09-11T13:22:37.387Z,5.30
2018-09-11T13:25:13.760Z,4.70
2018-09-11T13:27:45.300Z,5.20
2018-09-11T13:30:20.832Z,5.10
2018-09-11T13:32:59.771Z,5.47
2018-09-11T13:35:38.886Z,4.30
2018-09-11T13:38:18.343Z,4.30
2018-09-11T13:40:57.393Z,4.20
2018-09-11T13:43:36.713Z,4.33
2018-09-11T13:46:16.925Z,4.47
2018-09-11T13:48:56.351Z,3.63
2018-09-11T13:51:35.853Z,3.60
2018-09-11T13:54:07.619Z,3.70
2018-09-11T13:56:43.994Z,4.13
2018-09-11T13:59:18.124Z,3.70
2018-09-11T14:01:57.162Z,3.70
2018-09-11T14:04:36.526Z,3.80
2018-09-11T14:07:15.646Z,3.80
2018-09-11T14:09:54.883Z,3.60
2018-09-11T14:12:34.188Z,3.60
2018-09-11T14:15:13.527Z,3.40
2018-09-11T14:17:51.476Z,3.60
2018-09-11T14:20:30.378Z,3.80
2018-09-11T14:23:09.414Z,3.67
2018-09-11T14:25:48.794Z,3.13
2018-09-11T14:28:28.144Z,3.17
2018-09-11T14:31:07.324Z,3.30
2018-09-11T14:33:45.247Z,3.37
2018-09-11T14:36:24.309Z,3.47
2018-09-11T14:39:03.189Z,2.97
2018-09-11T14:41:42.300Z,3.50
2018-09-11T14:45:47.492Z,3.57
2018-09-11T14:48:27.012Z,3.50
2018-09-11T14:51:06.456Z,3.20
2018-09-11T14:53:43.449Z,3.40
2018-09-11T14:56:23.162Z,3.80
2018-09-11T14:59:02.704Z,3.63
2018-09-11T15:01:41.724Z,3.43
2018-09-11T15:04:19.923Z,3.60
2018-09-11T15:06:59.550Z,3.77
2018-09-11T15:09:36.216Z,3.33
2018-09-11T15:12:15.239Z,3.97
2018-09-11T15:14:54.280Z,3.33
2018-09-11T15:17:33.185Z,3.70
2018-09-11T15:20:11.454Z,3.87
2018-09-11T15:22:51.302Z,3.90
2018-09-11T15:25:30.342Z,3.90
2018-09-11T15:28:09.843Z,3.70
2018-09-11T15:30:50.037Z,3.70
2018-09-11T15:33:29.168Z,3.80
2018-09-11T15:36:08.580Z,3.70
2018-09-11T15:38:48.194Z,11.93
2018-09-11T15:41:27.979Z,4.23
2018-09-11T15:44:03.847Z,4.17
2018-09-11T15:46:43.494Z,4.73
2018-09-11T15:49:22.572Z,4.10
2018-09-11T15:52:01.412Z,4.43
2018-09-11T15:54:40.662Z,3.97
2018-09-11T15:57:19.582Z,3.80
2018-09-11T15:59:53.364Z,3.90
2018-09-11T16:02:28.386Z,4.90
2018-09-11T16:05:08.253Z,4.27
2018-09-11T16:07:48.399Z,5.17
2018-09-11T16:10:30.319Z,5.37
2018-09-11T16:13:08.949Z,4.80
2018-09-11T16:15:48.042Z,5.07
2018-09-11T16:18:27.743Z,4.37
2018-09-11T16:21:06.096Z,4.50
2018-09-11T16:23:47.354Z,4.87
2018-09-11T16:26:26.399Z,4.40
2018-09-11T16:29:05.538Z,4.63
2018-09-11T16:31:42.642Z,4.87
2018-09-11T16:34:21.641Z,4.73
2018-09-11T16:37:00.992Z,5.63
2018-09-11T16:39:38.067Z,5.30
2018-09-11T16:42:17.214Z,4.77
2018-09-11T16:44:54.138Z,4.97
2018-09-11T16:47:32.992Z,4.80
2018-09-11T16:50:11.759Z,4.60
2018-09-11T16:52:48.010Z,4.30
2018-09-11T16:55:29.636Z,4.67
2018-09-11T16:58:05.448Z,5.03
2018-09-11T17:00:44.539Z,4.97
2018-09-11T17:03:22.653Z,4.97
2018-09-11T17:06:02.978Z,4.47
2018-09-11T17:08:42.736Z,4.60
2018-09-11T17:11:18.645Z,4.63
2018-09-11T17:13:54.820Z,4.93
2018-09-11T17:16:33.974Z,4.90
2018-09-11T17:19:13.230Z,5.00
2018-09-11T17:21:52.697Z,5.00
2018-09-11T17:24:29.008Z,5.07
2018-09-11T17:27:07.425Z,5.67
2018-09-11T17:29:46.608Z,5.17
2018-09-11T17:32:25.652Z,5.13
2018-09-11T17:35:04.924Z,4.63
2018-09-11T17:37:43.987Z,4.60
2018-09-11T17:40:22.972Z,4.80
2018-09-11T17:43:01.993Z,5.23
2018-09-11T17:45:41.145Z,4.73
2018-09-11T17:48:20.549Z,4.63
2018-09-11T17:51:00.985Z,4.90
2018-09-11T17:53:40.888Z,5.13
2018-09-11T17:56:16.612Z,4.97
2018-09-11T17:58:55.953Z,5.10
2018-09-11T18:01:35.149Z,4.90
2018-09-11T18:04:06.463Z,5.13
2018-09-11T18:06:40.894Z,4.83
2018-09-11T18:09:20.201Z,5.70
2018-09-11T18:11:59.698Z,5.30
2018-09-11T18:14:38.173Z,5.10
2018-09-11T18:17:17.159Z,5.10
2018-09-11T18:19:54.376Z,5.40
2018-09-11T18:22:33.460Z,5.17
2018-09-11T18:25:13.286Z,5.30
2018-09-11T18:27:50.898Z,5.30
2018-09-11T18:30:30.462Z,4.93
2018-09-11T18:33:10.236Z,4.77
2018-09-11T18:35:49.428Z,4.87
2018-09-11T18:38:28.785Z,5.40
2018-09-11T18:41:07.784Z,5.30
2018-09-11T18:43:40.037Z,5.40
2018-09-11T18:46:11.854Z,5.80
2018-09-11T18:48:49.013Z,5.57
2018-09-11T18:51:28.331Z,5.87
2018-09-11T18:54:07.757Z,5.50
2018-09-11T18:56:46.288Z,5.60
2018-09-11T18:59:24.271Z,6.50
2018-09-11T19:02:03.572Z,5.93
2018-09-11T19:04:42.581Z,6.40
2018-09-11T19:07:22.243Z,6.30
2018-09-11T19:10:01.462Z,6.07
2018-09-11T19:12:38.645Z,6.17
2018-09-11T19:15:15.775Z,6.53
2018-09-11T19:17:54.729Z,6.43
2018-09-11T19:20:30.867Z,6.43
2018-09-11T19:23:08.044Z,6.10
2018-09-11T19:25:46.894Z,6.20
2018-09-11T19:28:26.592Z,6.17
2018-09-11T19:31:05.792Z,6.60
2018-09-11T19:33:44.874Z,5.97
2018-09-11T19:36:23.844Z,6.40
2018-09-11T19:39:03.231Z,6.23
2018-09-11T19:41:42.251Z,6.30
2018-09-11T19:44:21.394Z,6.13
2018-09-11T19:47:05.311Z,6.20
2018-09-11T19:49:40.143Z,6.10
2018-09-11T19:52:12.552Z,6.27
2018-09-11T19:54:46.035Z,6.03
2018-09-11T19:57:26.662Z,6.30
2018-09-11T20:00:06.493Z,6.30
2018-09-11T20:02:48.560Z,6.40
2018-09-11T20:05:24.776Z,6.33
2018-09-11T20:08:08.404Z,6.50
2018-09-11T20:10:47.526Z,6.30
2018-09-11T20:13:21.825Z,6.27
2018-09-11T20:15:52.924Z,6.33
2018-09-11T20:18:24.750Z,6.57
2018-09-11T20:20:59.480Z,6.60
2018-09-11T20:23:31.071Z,6.73
2018-09-11T20:26:03.421Z,6.00
2018-09-11T20:28:42.979Z,6.30
2018-09-11T20:31:21.959Z,6.57
2018-09-11T20:33:53.479Z,6.50
2018-09-11T20:36:31.089Z,6.20
2018-09-11T20:39:10.859Z,6.90
2018-09-11T20:41:49.842Z,6.37
2018-09-11T20:44:28.785Z,6.47
2018-09-11T20:47:00.781Z,6.57
2018-09-11T20:49:32.191Z,6.57
2018-09-11T20:52:03.449Z,6.73
2018-09-11T20:54:44.130Z,6.20
2018-09-11T20:57:13.921Z,7.20
2018-09-11T20:59:44.930Z,6.23
2018-09-11T21:02:17.258Z,6.37
2018-09-11T21:04:49.850Z,6.73
2018-09-11T21:07:22.501Z,6.50
2018-09-11T21:09:55.930Z,7.00
2018-09-11T21:12:29.503Z,6.73
2018-09-11T21:15:00.930Z,7.07
2018-09-11T21:17:33.752Z,5.63
2018-09-11T21:20:06.039Z,6.57
2018-09-11T21:22:41.150Z,6.53
2018-09-11T21:25:12.469Z,7.23
2018-09-11T21:27:44.230Z,6.50
2018-09-11T21:30:15.213Z,6.57
2018-09-11T21:32:47.769Z,6.00
2018-09-11T21:35:17.949Z,6.50
2018-09-11T21:37:51.820Z,5.93
2018-09-11T21:40:25.520Z,6.17
2018-09-11T21:43:04.720Z,6.00
2018-09-11T21:45:38.099Z,6.40
2018-09-11T21:48:14.564Z,6.00
2018-09-11T21:50:49.220Z,6.40
2018-09-11T21:53:23.601Z,6.00
2018-09-11T21:56:04.902Z,6.30
2018-09-11T21:58:54.641Z,6.00
2018-09-11T22:01:34.089Z,6.70
2018-09-11T22:04:07.284Z,6.10
2018-09-11T22:06:45.927Z,6.27
2018-09-11T22:09:19.019Z,6.27
2018-09-11T22:11:50.525Z,6.33
2018-09-11T22:14:27.830Z,5.83
2018-09-11T22:17:02.975Z,6.27
2018-09-11T22:19:41.915Z,6.27
2018-09-11T22:22:17.029Z,5.87
2018-09-11T22:24:53.868Z,6.23
2018-09-11T22:27:28.719Z,6.70
2018-09-11T22:29:59.580Z,5.77
2018-09-11T22:32:29.897Z,5.70
2018-09-11T22:35:01.190Z,6.13
2018-09-11T22:37:31.268Z,6.10
2018-09-11T22:40:02.943Z,6.23
2018-09-11T22:42:34.299Z,6.03
2018-09-11T22:45:06.329Z,6.10
2018-09-11T22:47:38.879Z,5.77
2018-09-11T22:50:10.890Z,6.10
2018-09-11T22:52:41.490Z,6.13
2018-09-11T22:55:11.832Z,5.90
2018-09-11T22:57:43.041Z,6.13
2018-09-11T23:00:16.499Z,6.20
2018-09-11T23:02:46.369Z,5.73
2018-09-11T23:05:16.820Z,5.77
2018-09-11T23:07:46.999Z,6.20
2018-09-11T23:10:16.950Z,6.17
2018-09-11T23:12:47.448Z,6.17
2018-09-11T23:15:20.420Z,6.07
2018-09-11T23:17:50.850Z,5.70
2018-09-11T23:20:21.448Z,7.00
2018-09-11T23:22:52.207Z,6.30
2018-09-11T23:25:22.320Z,6.27
2018-09-11T23:27:54.849Z,6.10
2018-09-11T23:30:25.507Z,6.07
2018-09-11T23:32:56.890Z,6.30
2018-09-11T23:35:28.929Z,6.10
2018-09-11T23:38:02.442Z,5.60
2018-09-11T23:40:42.238Z,5.57
2018-09-11T23:43:13.598Z,5.87
2018-09-11T23:45:49.858Z,6.00
2018-09-11T23:48:20.922Z,5.87
2018-09-11T23:50:52.479Z,6.03
2018-09-11T23:53:24.173Z,6.13
2018-09-11T23:56:06.654Z,5.65
2018-09-11T23:58:51.927Z,5.90
